createdAt,value
2019-06-07T00:03:05.137Z,101159.60
2019-06-07T00:06:48.498Z,101164.19
2019-06-07T00:10:36.073Z,101159.14
2019-06-07T00:14:13.032Z,101151.98
2019-06-07T00:18:11.213Z,101141.70
2019-06-07T00:22:15.445Z,101139.84
2019-06-07T00:25:51.283Z,101143.20
2019-06-07T00:29:34.025Z,101149.52
2019-06-07T00:33:13.138Z,101141.88
2019-06-07T00:36:54.765Z,101142.25
2019-06-07T00:40:32.326Z,101136.06
2019-06-07T00:44:19.716Z,101132.64
2019-06-07T00:48:25.202Z,101125.45
2019-06-07T00:52:00.148Z,101116.56
2019-06-07T00:55:36.433Z,101125.48
2019-06-07T00:59:24.543Z,101135.59
2019-06-07T01:03:06.202Z,101144.23
2019-06-07T01:06:50.263Z,101142.25
2019-06-07T01:10:52.366Z,101136.56
2019-06-07T01:22:05.261Z,101126.84
2019-06-07T01:25:51.997Z,101135.83
2019-06-07T01:29:37.022Z,101128.69
2019-06-07T01:33:15.912Z,101124.74
2019-06-07T01:36:59.665Z,101129.17
2019-06-07T01:40:35.182Z,101131.16
2019-06-07T01:44:23.674Z,101133.75
2019-06-07T01:48:19.800Z,101143.13
2019-06-07T01:52:00.175Z,101148.78
2019-06-07T01:55:35.820Z,101143.62
2019-06-07T01:59:21.939Z,101135.12
2019-06-07T02:03:22.272Z,101128.31
2019-06-07T02:07:05.769Z,101132.13
2019-06-07T02:10:48.168Z,101119.73
2019-06-07T02:14:34.434Z,101113.67
2019-06-07T02:18:10.043Z,101113.58
2019-06-07T02:21:54.076Z,101121.31
2019-06-07T02:25:43.827Z,101119.00
2019-06-07T02:29:20.267Z,101114.72
2019-06-07T02:33:18.705Z,101114.91
2019-06-07T02:37:05.104Z,101109.37
2019-06-07T02:40:42.554Z,101098.01
2019-06-07T02:44:33.186Z,101091.59
2019-06-07T02:48:15.416Z,101091.09
2019-06-07T02:52:03.457Z,101092.64
2019-06-07T02:55:30.783Z,101083.90
2019-06-07T03:09:09.567Z,101083.38
2019-06-07T03:12:44.941Z,101078.81
2019-06-07T03:31:02.322Z,101072.41
2019-06-07T03:34:51.974Z,101070.17
2019-06-07T03:38:54.075Z,101066.87
2019-06-07T03:52:40.976Z,101064.08
2019-06-07T03:56:47.013Z,101047.55
2019-06-07T04:00:22.262Z,101043.25
2019-06-07T04:04:04.835Z,101046.31
2019-06-07T04:07:44.099Z,101050.47
2019-06-07T04:15:56.990Z,101040.91
2019-06-07T04:19:34.977Z,101035.56
2019-06-07T04:33:10.515Z,101023.13
2019-06-07T04:36:58.617Z,101021.66
2019-06-07T04:40:24.640Z,101023.64
2019-06-07T04:44:00.510Z,101010.95
2019-06-07T04:48:04.244Z,101012.42
2019-06-07T04:51:41.109Z,101002.80
2019-06-07T04:55:24.390Z,101008.30
2019-06-07T04:58:59.964Z,101003.66
2019-06-07T05:02:38.631Z,101002.08
2019-06-07T05:06:20.179Z,101000.58
2019-06-07T05:09:56.243Z,100997.56
2019-06-07T05:13:35.854Z,101003.09
2019-06-07T05:24:49.248Z,100994.41
2019-06-07T05:36:20.031Z,100984.29
2019-06-07T05:39:55.621Z,100981.30
2019-06-07T05:43:34.998Z,100973.47
2019-06-07T05:47:16.020Z,100969.92
2019-06-07T05:50:56.717Z,100961.62
2019-06-07T05:54:37.733Z,100957.84
2019-06-07T05:58:33.365Z,100962.37
2019-06-07T06:02:22.641Z,100953.98
2019-06-07T06:06:13.207Z,100951.44
2019-06-07T06:09:56.086Z,100946.38
2019-06-07T06:13:34.440Z,100946.78
2019-06-07T06:16:58.116Z,100946.67
2019-06-07T06:20:21.320Z,100939.77
2019-06-07T06:23:45.836Z,100931.72
2019-06-07T06:28:07.778Z,100921.32
2019-06-07T06:31:26.397Z,100915.08
2019-06-07T06:35:02.125Z,100919.31
2019-06-07T06:38:39.626Z,100915.57
2019-06-07T06:42:15.084Z,100918.94
2019-06-07T06:45:57.635Z,100919.82
2019-06-07T06:50:16.890Z,100929.78
2019-06-07T06:53:59.521Z,100923.81
2019-06-07T06:57:35.564Z,100908.45
2019-06-07T07:01:18.066Z,100911.14
2019-06-07T07:04:54.096Z,100897.81
2019-06-07T07:08:36.886Z,100902.08
2019-06-07T07:12:14.826Z,100913.68
2019-06-07T07:15:55.291Z,100904.94
2019-06-07T07:19:34.296Z,100903.12
2019-06-07T07:23:10.357Z,100895.66
2019-06-07T07:26:33.475Z,100885.20
2019-06-07T07:37:32.123Z,100877.45
2019-06-07T07:41:15.210Z,100872.73
2019-06-07T07:44:47.193Z,100862.44
2019-06-07T07:48:29.530Z,100863.36
2019-06-07T07:52:04.646Z,100848.50
2019-06-07T07:55:50.418Z,100844.03
2019-06-07T08:00:01.513Z,100848.34
2019-06-07T08:03:29.261Z,100827.41
2019-06-07T08:07:04.752Z,100835.27
2019-06-07T08:10:51.354Z,100835.62
2019-06-07T08:14:44.535Z,100805.64
2019-06-07T08:18:28.129Z,100802.47
2019-06-07T08:22:03.736Z,100797.72
2019-06-07T08:25:46.825Z,100779.44
2019-06-07T08:29:44.505Z,100784.80
2019-06-07T08:33:26.075Z,100762.23
2019-06-07T08:37:12.524Z,100759.14
2019-06-07T08:40:53.653Z,100755.30
2019-06-07T08:44:25.828Z,100739.77
2019-06-07T08:48:27.040Z,100729.73
2019-06-07T08:51:56.828Z,100725.72
2019-06-07T08:55:36.924Z,100724.90
2019-06-07T08:59:12.981Z,100716.66
2019-06-07T09:02:58.017Z,100716.87
2019-06-07T09:10:27.950Z,100715.34
2019-06-07T09:14:08.864Z,100690.69
2019-06-07T09:18:30.575Z,100693.94
2019-06-07T09:21:45.465Z,100694.61
2019-06-07T09:38:03.027Z,100684.00
2019-06-07T09:41:09.886Z,100671.66
2019-06-07T09:44:52.587Z,100662.86
2019-06-07T09:49:10.097Z,100659.09
2019-06-07T09:52:12.671Z,100641.11
2019-06-07T09:55:47.846Z,100637.83
2019-06-07T09:59:13.028Z,100620.25
2019-06-07T10:03:02.262Z,100624.52
2019-06-07T10:06:46.822Z,100615.36
2019-06-07T10:14:08.694Z,100615.52
2019-06-07T10:17:51.836Z,100602.23
2019-06-07T10:21:34.526Z,100605.00
2019-06-07T10:25:10.600Z,100610.66
2019-06-07T10:28:53.700Z,100615.03
2019-06-07T10:32:41.226Z,100600.34
2019-06-07T10:36:23.862Z,100609.72
2019-06-07T10:39:59.069Z,100602.19
2019-06-07T10:43:41.730Z,100601.86
2019-06-07T10:47:17.013Z,100596.67
2019-06-07T10:50:59.604Z,100592.70
2019-06-07T10:54:35.671Z,100580.42
2019-06-07T10:58:18.356Z,100567.41
2019-06-07T11:01:53.842Z,100558.99
2019-06-07T11:05:36.380Z,100559.63
2019-06-07T11:09:12.078Z,100547.12
2019-06-07T11:12:48.147Z,100545.16
2019-06-07T11:16:23.477Z,100525.11
2019-06-07T11:24:24.776Z,100499.76
2019-06-07T11:28:06.340Z,100492.19
2019-06-07T11:31:49.455Z,100475.95
2019-06-07T11:35:25.054Z,100475.70
2019-06-07T11:39:08.522Z,100463.48
2019-06-07T11:42:52.811Z,100466.05
2019-06-07T11:46:35.548Z,100457.73
2019-06-07T11:50:11.793Z,100451.09
2019-06-07T11:53:54.454Z,100445.87
2019-06-07T11:57:30.025Z,100451.16
2019-06-07T12:01:14.945Z,100441.91
2019-06-07T12:04:56.474Z,100434.91
2019-06-07T12:08:40.049Z,100427.02
2019-06-07T12:12:16.516Z,100414.00
2019-06-07T12:15:59.411Z,100411.48
2019-06-07T12:19:38.663Z,100413.19
2019-06-07T12:23:21.520Z,100404.16
2019-06-07T12:26:57.030Z,100395.97
2019-06-07T12:30:39.599Z,100403.47
2019-06-07T12:34:15.803Z,100387.61
2019-06-07T12:37:58.366Z,100385.48
2019-06-07T12:41:33.912Z,100377.98
2019-06-07T12:45:35.248Z,100369.01
2019-06-07T12:48:59.923Z,100359.06
2019-06-07T12:52:42.520Z,100353.26
2019-06-07T12:56:18.216Z,100353.66
2019-06-07T13:00:00.839Z,100357.02
2019-06-07T13:03:36.144Z,100354.53
2019-06-07T13:07:20.079Z,100355.63
2019-06-07T13:11:14.742Z,100338.87
2019-06-07T13:14:47.696Z,100348.16
2019-06-07T13:18:14.688Z,100348.09
2019-06-07T13:22:02.080Z,100338.13
2019-06-07T13:25:46.273Z,100329.90
2019-06-07T13:29:22.717Z,100326.16
2019-06-07T13:32:58.491Z,100338.16
2019-06-07T13:36:41.196Z,100304.39
2019-06-07T13:40:19.238Z,100314.14
2019-06-07T13:44:01.501Z,100301.26
2019-06-07T13:47:37.623Z,100296.78
2019-06-07T13:51:13.326Z,100299.52
2019-06-07T13:54:56.105Z,100297.58
2019-06-07T13:58:32.378Z,100298.81
2019-06-07T14:02:08.028Z,100284.80
2019-06-07T14:05:50.616Z,100287.89
2019-06-07T14:09:29.603Z,100300.17
2019-06-07T14:13:12.417Z,100294.41
2019-06-07T14:16:48.185Z,100291.63
2019-06-07T14:20:34.345Z,100286.36
2019-06-07T14:24:31.208Z,100296.98
2019-06-07T14:28:13.916Z,100286.48
2019-06-07T14:31:49.579Z,100305.59
2019-06-07T14:35:33.704Z,100312.00
2019-06-07T14:39:31.372Z,100298.80
2019-06-07T14:43:06.854Z,100297.75
2019-06-07T14:46:42.315Z,100297.31
2019-06-07T14:50:26.018Z,100290.48
2019-06-07T14:54:08.508Z,100291.49
2019-06-07T14:57:51.045Z,100292.55
2019-06-07T15:01:28.494Z,100288.31
2019-06-07T15:05:12.813Z,100289.68
2019-06-07T15:08:51.407Z,100303.02
2019-06-07T15:12:33.301Z,100306.86
2019-06-07T15:16:20.932Z,100309.03
2019-06-07T15:20:17.094Z,100326.80
2019-06-07T15:23:59.640Z,100381.19
2019-06-07T15:27:35.341Z,100419.83
2019-06-07T15:31:18.110Z,100430.29
2019-06-07T15:34:54.711Z,100412.75
2019-06-07T15:39:06.796Z,100411.23
2019-06-07T15:42:52.078Z,100422.53
2019-06-07T15:46:26.797Z,100427.30
2019-06-07T15:50:02.721Z,100469.70
2019-06-07T15:53:45.508Z,100475.69
2019-06-07T15:57:20.903Z,100507.86
2019-06-07T16:01:03.467Z,100522.48
2019-06-07T16:04:39.735Z,100522.60
2019-06-07T16:08:22.513Z,100552.05
2019-06-07T16:11:57.972Z,100568.16
2019-06-07T16:15:41.399Z,100620.23
2019-06-07T16:19:28.424Z,100623.63
2019-06-07T16:23:11.014Z,100628.38
2019-06-07T16:26:46.753Z,100590.81
2019-06-07T16:30:29.359Z,100600.30
2019-06-07T16:34:08.464Z,100632.91
2019-06-07T16:37:52.443Z,100630.05
2019-06-07T16:41:48.947Z,100648.78
2019-06-07T16:45:31.553Z,100659.36
2019-06-07T16:49:07.304Z,100656.00
2019-06-07T16:52:49.866Z,100656.52
2019-06-07T16:56:27.490Z,100666.76
2019-06-07T17:00:10.362Z,100670.00
2019-06-07T17:03:45.910Z,100668.50
2019-06-07T17:07:21.527Z,100654.53
2019-06-07T17:11:04.064Z,100643.45
2019-06-07T17:14:40.305Z,100641.16
2019-06-07T17:18:22.992Z,100616.06
2019-06-07T17:21:58.271Z,100603.52
2019-06-07T17:25:41.331Z,100613.94
2019-06-07T17:29:25.122Z,100621.23
2019-06-07T17:33:07.697Z,100634.22
2019-06-07T17:36:44.787Z,100638.59
2019-06-07T17:40:20.828Z,100641.00
2019-06-07T17:44:00.138Z,100641.38
2019-06-07T17:47:41.622Z,100646.89
2019-06-07T17:51:28.169Z,100629.20
2019-06-07T17:59:33.634Z,100618.56
2019-06-07T18:03:08.916Z,100587.67
2019-06-07T18:06:51.556Z,100576.78
2019-06-07T18:10:32.751Z,100577.08
2019-06-07T18:18:04.404Z,100543.91
2019-06-07T18:21:47.142Z,100603.45
2019-06-07T18:25:31.056Z,100566.86
2019-06-07T18:29:13.958Z,100601.41
2019-06-07T18:32:50.739Z,100617.38
2019-06-07T18:36:33.680Z,100639.72
2019-06-07T18:40:09.731Z,100619.88
2019-06-07T18:43:53.143Z,100639.28
2019-06-07T18:47:51.412Z,100635.78
2019-06-07T18:51:34.220Z,100636.61
2019-06-07T18:55:10.356Z,100631.41
2019-06-07T18:58:53.165Z,100622.28
2019-06-07T19:02:28.816Z,100604.02
2019-06-07T19:06:11.685Z,100615.41
2019-06-07T19:09:48.518Z,100609.14
2019-06-07T19:13:33.184Z,100590.50
2019-06-07T19:17:08.605Z,100562.84
2019-06-07T19:20:52.367Z,100529.83
2019-06-07T19:24:49.996Z,100569.50
2019-06-07T19:32:29.413Z,100607.11
2019-06-07T19:36:04.805Z,100614.30
2019-06-07T19:39:47.399Z,100625.98
2019-06-07T19:43:23.173Z,100616.48
2019-06-07T19:46:58.543Z,100599.59
2019-06-07T19:50:41.185Z,100607.36
2019-06-07T19:54:23.640Z,100618.33
2019-06-07T19:57:59.731Z,100632.19
2019-06-07T20:01:35.849Z,100630.30
2019-06-07T20:05:19.067Z,100630.14
2019-06-07T20:08:54.737Z,100634.56
2019-06-07T20:12:37.466Z,100636.47
2019-06-07T20:16:13.207Z,100640.72
2019-06-07T20:19:56.270Z,100659.49
2019-06-07T20:23:53.086Z,100645.54
2019-06-07T20:27:35.993Z,100662.03
2019-06-07T20:31:11.362Z,100648.56
2019-06-07T20:34:55.148Z,100674.08
2019-06-07T20:38:30.925Z,100662.34
2019-06-07T20:42:07.785Z,100659.30
2019-06-07T20:45:43.702Z,100657.17
2019-06-07T20:49:26.302Z,100655.34
2019-06-07T20:53:03.051Z,100638.88
2019-06-07T20:56:38.947Z,100640.14
2019-06-07T21:00:22.474Z,100642.88
2019-06-07T21:04:05.118Z,100640.72
2019-06-07T21:07:47.929Z,100644.61
2019-06-07T21:11:23.757Z,100640.08
2019-06-07T21:15:10.783Z,100654.34
2019-06-07T21:18:53.948Z,100647.02
2019-06-07T21:22:36.607Z,100648.39
2019-06-07T21:26:13.943Z,100641.57
2019-06-07T21:29:56.843Z,100654.77
2019-06-07T21:33:32.451Z,100657.25
2019-06-07T21:37:15.247Z,100662.43
2019-06-07T21:40:51.131Z,100661.93
2019-06-07T21:44:33.886Z,100677.70
2019-06-07T21:48:09.669Z,100676.52
2019-06-07T21:51:52.322Z,100691.13
2019-06-07T21:55:28.500Z,100686.34
2019-06-07T21:59:23.047Z,100690.39
2019-06-07T22:03:05.806Z,100693.55
2019-06-07T22:06:42.039Z,100698.17
2019-06-07T22:10:24.859Z,100693.55
2019-06-07T22:14:00.522Z,100701.33
2019-06-07T22:17:36.104Z,100697.24
2019-06-07T22:21:18.771Z,100709.85
2019-06-07T22:24:54.045Z,100703.78
2019-06-07T22:28:37.112Z,100709.94
2019-06-07T22:36:34.612Z,100703.35
2019-06-07T22:40:10.772Z,100702.34
2019-06-07T22:43:53.713Z,100696.95
2019-06-07T22:47:29.410Z,100703.98
2019-06-07T22:58:59.348Z,100713.43
2019-06-07T23:06:26.603Z,100718.55
2019-06-07T23:10:09.208Z,100722.94
2019-06-07T23:13:44.748Z,100725.98
2019-06-07T23:17:27.750Z,100731.86
2019-06-07T23:21:03.379Z,100737.66
2019-06-07T23:24:45.999Z,100730.66
2019-06-07T23:28:21.898Z,100729.29
2019-06-07T23:32:04.493Z,100736.53
2019-06-07T23:35:40.302Z,100738.50
2019-06-07T23:39:23.265Z,100736.34
2019-06-07T23:42:59.462Z,100738.11
2019-06-07T23:46:35.109Z,100757.56
2019-06-07T23:50:19.870Z,100752.06
2019-06-07T23:54:02.331Z,100742.59
2019-06-07T23:57:45.156Z,100756.91
